sensor_id;sensor_type;location;lat;lon;timestamp;temperature;humidity
70309;DHT22;57716;50.896;4.440;2023-02-26T00:00:58;0.10;99.90
70309;DHT22;57716;50.896;4.440;2023-02-26T00:03:24;0.20;99.90
70309;DHT22;57716;50.896;4.440;2023-02-26T00:05:50;0.20;99.90
70309;DHT22;57716;50.896;4.440;2023-02-26T00:08:16;-0.10;99.90
70309;DHT22;57716;50.896;4.440;2023-02-26T00:10:41;0.10;99.90
70309;DHT22;57716;50.896;4.440;2023-02-26T00:13:09;0.00;99.90
70309;DHT22;57716;50.896;4.440;2023-02-26T00:15:35;0.10;99.90
70309;DHT22;57716;50.896;4.440;2023-02-26T00:18:06;-0.10;99.90
70309;DHT22;57716;50.896;4.440;2023-02-26T00:20:35;0.00;99.90
70309;DHT22;57716;50.896;4.440;2023-02-26T00:23:02;0.20;99.90
70309;DHT22;57716;50.896;4.440;2023-02-26T00:25:27;0.30;99.90
70309;DHT22;57716;50.896;4.440;2023-02-26T00:27:53;0.20;99.90
70309;DHT22;57716;50.896;4.440;2023-02-26T00:30:19;0.30;99.90
70309;DHT22;57716;50.896;4.440;2023-02-26T00:32:45;0.30;99.90
70309;DHT22;57716;50.896;4.440;2023-02-26T00:35:13;0.30;99.90
70309;DHT22;57716;50.896;4.440;2023-02-26T00:37:56;0.30;99.90
70309;DHT22;57716;50.896;4.440;2023-02-26T00:43:18;-0.20;99.90
70309;DHT22;57716;50.896;4.440;2023-02-26T00:48:55;-0.50;99.90
70309;DHT22;57716;50.896;4.440;2023-02-26T00:51:35;-0.80;99.90
70309;DHT22;57716;50.896;4.440;2023-02-26T00:56:40;-1.00;99.90
70309;DHT22;57716;50.896;4.440;2023-02-26T00:59:06;-1.00;99.90
70309;DHT22;57716;50.896;4.440;2023-02-26T01:01:32;-1.10;99.90
70309;DHT22;57716;50.896;4.440;2023-02-26T01:03:58;-1.20;99.90
70309;DHT22;57716;50.896;4.440;2023-02-26T01:06:27;-1.10;99.90
70309;DHT22;57716;50.896;4.440;2023-02-26T01:09:04;-1.00;99.90
70309;DHT22;57716;50.896;4.440;2023-02-26T01:11:35;-1.00;99.90
70309;DHT22;57716;50.896;4.440;2023-02-26T01:14:05;-0.90;99.90
70309;DHT22;57716;50.896;4.440;2023-02-26T01:19:44;-0.70;99.90
70309;DHT22;57716;50.896;4.440;2023-02-26T01:24:47;-0.70;99.90
70309;DHT22;57716;50.896;4.440;2023-02-26T01:27:13;-0.70;99.90
70309;DHT22;57716;50.896;4.440;2023-02-26T01:29:39;-0.60;99.90
70309;DHT22;57716;50.896;4.440;2023-02-26T01:32:18;-0.50;99.90
70309;DHT22;57716;50.896;4.440;2023-02-26T01:35:01;-0.50;99.90
70309;DHT22;57716;50.896;4.440;2023-02-26T01:37:53;-0.50;99.90
70309;DHT22;57716;50.896;4.440;2023-02-26T01:43:34;-0.40;99.90
70309;DHT22;57716;50.896;4.440;2023-02-26T01:48:52;-0.50;99.90
70309;DHT22;57716;50.896;4.440;2023-02-26T01:51:43;-0.60;99.90
70309;DHT22;57716;50.896;4.440;2023-02-26T01:54:10;-0.60;99.90
70309;DHT22;57716;50.896;4.440;2023-02-26T01:56:37;-0.50;99.90
70309;DHT22;57716;50.896;4.440;2023-02-26T01:59:04;-0.50;99.90
70309;DHT22;57716;50.896;4.440;2023-02-26T02:01:32;-0.50;99.90
70309;DHT22;57716;50.896;4.440;2023-02-26T02:03:58;-0.60;99.90
70309;DHT22;57716;50.896;4.440;2023-02-26T02:06:26;-0.60;99.90
70309;DHT22;57716;50.896;4.440;2023-02-26T02:08:54;-0.60;99.90
70309;DHT22;57716;50.896;4.440;2023-02-26T02:11:20;-0.50;99.90
70309;DHT22;57716;50.896;4.440;2023-02-26T02:13:59;-0.20;99.90
70309;DHT22;57716;50.896;4.440;2023-02-26T02:22:12;-0.20;99.90
70309;DHT22;57716;50.896;4.440;2023-02-26T02:27:34;-0.10;99.90
70309;DHT22;57716;50.896;4.440;2023-02-26T02:32:50;0.10;99.90
70309;DHT22;57716;50.896;4.440;2023-02-26T02:38:06;0.20;99.90
70309;DHT22;57716;50.896;4.440;2023-02-26T02:40:38;0.30;99.90
70309;DHT22;57716;50.896;4.440;2023-02-26T02:43:17;0.40;99.90
70309;DHT22;57716;50.896;4.440;2023-02-26T02:45:59;0.50;99.90
70309;DHT22;57716;50.896;4.440;2023-02-26T02:48:38;0.50;99.90
70309;DHT22;57716;50.896;4.440;2023-02-26T02:56:19;0.40;99.90
70309;DHT22;57716;50.896;4.440;2023-02-26T02:58:52;0.50;99.90
70309;DHT22;57716;50.896;4.440;2023-02-26T03:01:22;0.30;99.90
70309;DHT22;57716;50.896;4.440;2023-02-26T03:03:52;0.30;99.90
70309;DHT22;57716;50.896;4.440;2023-02-26T03:06:20;0.40;99.90
70309;DHT22;57716;50.896;4.440;2023-02-26T03:08:47;0.30;99.90
70309;DHT22;57716;50.896;4.440;2023-02-26T03:11:13;0.40;99.90
70309;DHT22;57716;50.896;4.440;2023-02-26T03:13:39;0.30;99.90
70309;DHT22;57716;50.896;4.440;2023-02-26T03:23:56;0.40;99.90
70309;DHT22;57716;50.896;4.440;2023-02-26T03:29:16;0.30;99.90
70309;DHT22;57716;50.896;4.440;2023-02-26T03:31:59;0.20;99.90
70309;DHT22;57716;50.896;4.440;2023-02-26T03:34:59;0.10;99.90
70309;DHT22;57716;50.896;4.440;2023-02-26T03:37:36;0.30;99.90
70309;DHT22;57716;50.896;4.440;2023-02-26T03:40:11;0.20;99.90
70309;DHT22;57716;50.896;4.440;2023-02-26T03:42:59;0.10;99.90
70309;DHT22;57716;50.896;4.440;2023-02-26T03:45:32;0.00;99.90
70309;DHT22;57716;50.896;4.440;2023-02-26T03:47:59;0.00;99.90
70309;DHT22;57716;50.896;4.440;2023-02-26T03:50:39;0.00;99.90
70309;DHT22;57716;50.896;4.440;2023-02-26T03:53:09;0.00;99.90
70309;DHT22;57716;50.896;4.440;2023-02-26T03:56:03;0.10;99.90
70309;DHT22;57716;50.896;4.440;2023-02-26T03:58:30;0.10;99.90
70309;DHT22;57716;50.896;4.440;2023-02-26T04:01:06;0.10;99.90
70309;DHT22;57716;50.896;4.440;2023-02-26T04:03:39;0.10;99.90
70309;DHT22;57716;50.896;4.440;2023-02-26T04:06:07;0.00;99.90
70309;DHT22;57716;50.896;4.440;2023-02-26T04:08:33;0.00;99.90
70309;DHT22;57716;50.896;4.440;2023-02-26T04:11:15;0.20;99.90
70309;DHT22;57716;50.896;4.440;2023-02-26T04:13:42;0.00;99.90
70309;DHT22;57716;50.896;4.440;2023-02-26T04:16:08;0.00;99.90
70309;DHT22;57716;50.896;4.440;2023-02-26T04:18:34;0.00;99.90
70309;DHT22;57716;50.896;4.440;2023-02-26T04:21:00;0.00;99.90
70309;DHT22;57716;50.896;4.440;2023-02-26T04:23:26;0.10;99.90
70309;DHT22;57716;50.896;4.440;2023-02-26T04:25:51;0.00;99.90
70309;DHT22;57716;50.896;4.440;2023-02-26T04:28:17;0.00;99.90
70309;DHT22;57716;50.896;4.440;2023-02-26T04:30:43;0.00;99.90
70309;DHT22;57716;50.896;4.440;2023-02-26T04:33:09;0.00;99.90
70309;DHT22;57716;50.896;4.440;2023-02-26T04:35:34;-0.10;99.90
70309;DHT22;57716;50.896;4.440;2023-02-26T04:38:00;0.00;99.90
70309;DHT22;57716;50.896;4.440;2023-02-26T04:40:26;-0.10;99.90
70309;DHT22;57716;50.896;4.440;2023-02-26T04:42:52;0.00;99.90
70309;DHT22;57716;50.896;4.440;2023-02-26T04:45:18;-0.10;99.90
70309;DHT22;57716;50.896;4.440;2023-02-26T04:47:43;-0.10;99.90
70309;DHT22;57716;50.896;4.440;2023-02-26T04:50:09;-0.30;99.90
70309;DHT22;57716;50.896;4.440;2023-02-26T04:52:35;-0.40;99.90
70309;DHT22;57716;50.896;4.440;2023-02-26T04:55:02;-0.40;99.90
70309;DHT22;57716;50.896;4.440;2023-02-26T04:57:28;-0.50;99.90
70309;DHT22;57716;50.896;4.440;2023-02-26T04:59:54;-0.50;99.90
70309;DHT22;57716;50.896;4.440;2023-02-26T05:02:19;-0.50;99.90
70309;DHT22;57716;50.896;4.440;2023-02-26T05:04:45;-0.50;99.90
70309;DHT22;57716;50.896;4.440;2023-02-26T05:07:11;-0.50;99.90
70309;DHT22;57716;50.896;4.440;2023-02-26T05:09:37;-0.60;99.90
70309;DHT22;57716;50.896;4.440;2023-02-26T05:12:02;-0.60;99.90
70309;DHT22;57716;50.896;4.440;2023-02-26T05:14:28;-0.60;99.90
70309;DHT22;57716;50.896;4.440;2023-02-26T05:16:54;-0.30;99.90
70309;DHT22;57716;50.896;4.440;2023-02-26T05:19:20;-0.60;99.90
70309;DHT22;57716;50.896;4.440;2023-02-26T05:21:45;-0.70;99.90
70309;DHT22;57716;50.896;4.440;2023-02-26T05:24:11;-0.60;99.90
70309;DHT22;57716;50.896;4.440;2023-02-26T05:26:37;-0.60;99.90
70309;DHT22;57716;50.896;4.440;2023-02-26T05:29:03;-0.40;99.90
70309;DHT22;57716;50.896;4.440;2023-02-26T05:31:29;-0.70;99.90
70309;DHT22;57716;50.896;4.440;2023-02-26T05:33:55;-0.80;99.90
70309;DHT22;57716;50.896;4.440;2023-02-26T05:36:20;-0.60;99.90
70309;DHT22;57716;50.896;4.440;2023-02-26T05:38:46;-0.90;99.90
70309;DHT22;57716;50.896;4.440;2023-02-26T05:41:12;-0.90;99.90
70309;DHT22;57716;50.896;4.440;2023-02-26T05:43:37;-0.80;99.90
70309;DHT22;57716;50.896;4.440;2023-02-26T05:46:04;-0.90;99.90
70309;DHT22;57716;50.896;4.440;2023-02-26T05:48:30;-0.80;99.90
70309;DHT22;57716;50.896;4.440;2023-02-26T05:50:55;-0.70;99.90
70309;DHT22;57716;50.896;4.440;2023-02-26T05:53:21;-0.80;99.90
70309;DHT22;57716;50.896;4.440;2023-02-26T05:55:47;-0.60;99.90
70309;DHT22;57716;50.896;4.440;2023-02-26T05:58:13;-0.70;99.90
70309;DHT22;57716;50.896;4.440;2023-02-26T06:00:40;-0.80;99.90
70309;DHT22;57716;50.896;4.440;2023-02-26T06:03:05;-0.60;99.90
70309;DHT22;57716;50.896;4.440;2023-02-26T06:05:31;-0.90;99.90
70309;DHT22;57716;50.896;4.440;2023-02-26T06:07:57;-1.00;99.90
70309;DHT22;57716;50.896;4.440;2023-02-26T06:10:23;-0.70;99.90
70309;DHT22;57716;50.896;4.440;2023-02-26T06:12:49;-0.90;99.90
70309;DHT22;57716;50.896;4.440;2023-02-26T06:15:14;-1.00;99.90
70309;DHT22;57716;50.896;4.440;2023-02-26T06:17:40;-1.00;99.90
70309;DHT22;57716;50.896;4.440;2023-02-26T06:20:06;-1.10;99.90
70309;DHT22;57716;50.896;4.440;2023-02-26T06:22:32;-1.00;99.90
70309;DHT22;57716;50.896;4.440;2023-02-26T06:24:58;-0.90;99.90
70309;DHT22;57716;50.896;4.440;2023-02-26T06:27:24;-1.10;99.90
70309;DHT22;57716;50.896;4.440;2023-02-26T06:29:50;-1.00;99.90
70309;DHT22;57716;50.896;4.440;2023-02-26T06:32:16;-0.90;99.90
70309;DHT22;57716;50.896;4.440;2023-02-26T06:34:41;-1.10;99.90
70309;DHT22;57716;50.896;4.440;2023-02-26T06:37:07;-0.80;99.90
70309;DHT22;57716;50.896;4.440;2023-02-26T06:39:33;-1.00;99.90
70309;DHT22;57716;50.896;4.440;2023-02-26T06:41:58;-0.90;99.90
70309;DHT22;57716;50.896;4.440;2023-02-26T06:44:24;-0.90;99.90
70309;DHT22;57716;50.896;4.440;2023-02-26T06:46:50;-1.00;99.90
70309;DHT22;57716;50.896;4.440;2023-02-26T06:49:16;-1.00;99.90
70309;DHT22;57716;50.896;4.440;2023-02-26T06:51:42;-1.10;99.90
70309;DHT22;57716;50.896;4.440;2023-02-26T06:54:08;-1.20;99.90
70309;DHT22;57716;50.896;4.440;2023-02-26T06:56:34;-1.20;99.90
70309;DHT22;57716;50.896;4.440;2023-02-26T06:58:59;-1.20;99.90
70309;DHT22;57716;50.896;4.440;2023-02-26T07:01:25;-1.20;99.90
70309;DHT22;57716;50.896;4.440;2023-02-26T07:03:51;-1.20;99.90
70309;DHT22;57716;50.896;4.440;2023-02-26T07:06:17;-1.10;99.90
70309;DHT22;57716;50.896;4.440;2023-02-26T07:08:43;-0.90;99.90
70309;DHT22;57716;50.896;4.440;2023-02-26T07:11:09;-0.80;99.90
70309;DHT22;57716;50.896;4.440;2023-02-26T07:13:36;-0.80;99.90
70309;DHT22;57716;50.896;4.440;2023-02-26T07:16:03;-0.80;99.90
70309;DHT22;57716;50.896;4.440;2023-02-26T07:18:32;-0.70;99.90
70309;DHT22;57716;50.896;4.440;2023-02-26T07:20:58;-0.70;99.90
70309;DHT22;57716;50.896;4.440;2023-02-26T07:23:24;-0.60;99.90
70309;DHT22;57716;50.896;4.440;2023-02-26T07:25:50;-0.60;99.90
70309;DHT22;57716;50.896;4.440;2023-02-26T07:28:15;-0.50;99.90
70309;DHT22;57716;50.896;4.440;2023-02-26T07:30:41;-0.50;99.90
70309;DHT22;57716;50.896;4.440;2023-02-26T07:33:08;-0.30;99.90
70309;DHT22;57716;50.896;4.440;2023-02-26T07:35:34;-0.30;99.90
70309;DHT22;57716;50.896;4.440;2023-02-26T07:38:00;-0.20;99.90
70309;DHT22;57716;50.896;4.440;2023-02-26T07:40:26;-0.20;99.90
70309;DHT22;57716;50.896;4.440;2023-02-26T07:42:52;-0.20;99.90
70309;DHT22;57716;50.896;4.440;2023-02-26T07:45:17;0.00;99.90
70309;DHT22;57716;50.896;4.440;2023-02-26T07:47:47;-0.10;99.90
70309;DHT22;57716;50.896;4.440;2023-02-26T07:50:13;0.00;99.90
70309;DHT22;57716;50.896;4.440;2023-02-26T07:52:39;0.10;99.90
70309;DHT22;57716;50.896;4.440;2023-02-26T07:55:06;0.40;99.90
70309;DHT22;57716;50.896;4.440;2023-02-26T07:57:32;0.00;99.90
70309;DHT22;57716;50.896;4.440;2023-02-26T07:59:58;0.30;99.90
70309;DHT22;57716;50.896;4.440;2023-02-26T08:02:24;0.10;99.90
70309;DHT22;57716;50.896;4.440;2023-02-26T08:04:50;0.30;99.90
70309;DHT22;57716;50.896;4.440;2023-02-26T08:07:16;0.40;99.90
70309;DHT22;57716;50.896;4.440;2023-02-26T08:09:42;0.40;99.90
70309;DHT22;57716;50.896;4.440;2023-02-26T08:12:09;0.70;99.90
70309;DHT22;57716;50.896;4.440;2023-02-26T08:14:35;0.60;99.90
70309;DHT22;57716;50.896;4.440;2023-02-26T08:17:01;0.60;99.90
70309;DHT22;57716;50.896;4.440;2023-02-26T08:19:26;0.70;99.90
70309;DHT22;57716;50.896;4.440;2023-02-26T08:21:52;0.70;99.90
70309;DHT22;57716;50.896;4.440;2023-02-26T08:24:20;0.80;99.90
70309;DHT22;57716;50.896;4.440;2023-02-26T08:26:46;1.10;99.90
70309;DHT22;57716;50.896;4.440;2023-02-26T08:29:12;1.00;99.90
70309;DHT22;57716;50.896;4.440;2023-02-26T08:31:38;1.10;99.90
70309;DHT22;57716;50.896;4.440;2023-02-26T08:34:04;1.10;99.90
70309;DHT22;57716;50.896;4.440;2023-02-26T08:36:30;1.10;99.90
70309;DHT22;57716;50.896;4.440;2023-02-26T08:38:56;1.10;99.90
70309;DHT22;57716;50.896;4.440;2023-02-26T08:41:23;1.20;99.90
70309;DHT22;57716;50.896;4.440;2023-02-26T08:43:48;1.30;99.90
70309;DHT22;57716;50.896;4.440;2023-02-26T08:46:14;1.30;99.90
70309;DHT22;57716;50.896;4.440;2023-02-26T08:48:40;1.40;99.90
70309;DHT22;57716;50.896;4.440;2023-02-26T08:51:06;1.50;99.90
70309;DHT22;57716;50.896;4.440;2023-02-26T08:53:31;1.50;99.90
70309;DHT22;57716;50.896;4.440;2023-02-26T08:55:57;1.60;99.90
70309;DHT22;57716;50.896;4.440;2023-02-26T08:58:23;1.60;99.90
70309;DHT22;57716;50.896;4.440;2023-02-26T09:00:49;1.70;99.90
70309;DHT22;57716;50.896;4.440;2023-02-26T09:03:15;1.70;99.90
70309;DHT22;57716;50.896;4.440;2023-02-26T09:05:41;1.90;99.90
70309;DHT22;57716;50.896;4.440;2023-02-26T09:08:07;1.80;99.90
70309;DHT22;57716;50.896;4.440;2023-02-26T09:10:33;1.90;99.90
70309;DHT22;57716;50.896;4.440;2023-02-26T09:12:59;1.90;99.90
70309;DHT22;57716;50.896;4.440;2023-02-26T09:15:25;1.90;99.90
70309;DHT22;57716;50.896;4.440;2023-02-26T09:17:51;2.10;99.90
70309;DHT22;57716;50.896;4.440;2023-02-26T09:20:17;2.10;99.90
70309;DHT22;57716;50.896;4.440;2023-02-26T09:22:43;2.10;99.90
70309;DHT22;57716;50.896;4.440;2023-02-26T09:25:09;2.30;99.90
70309;DHT22;57716;50.896;4.440;2023-02-26T09:27:35;2.40;99.90
70309;DHT22;57716;50.896;4.440;2023-02-26T09:30:02;2.20;99.90
70309;DHT22;57716;50.896;4.440;2023-02-26T09:32:28;2.30;99.90
70309;DHT22;57716;50.896;4.440;2023-02-26T09:34:54;2.50;99.90
70309;DHT22;57716;50.896;4.440;2023-02-26T09:37:20;2.70;99.90
70309;DHT22;57716;50.896;4.440;2023-02-26T09:39:46;2.50;99.90
70309;DHT22;57716;50.896;4.440;2023-02-26T09:45:35;2.70;99.90
70309;DHT22;57716;50.896;4.440;2023-02-26T09:48:04;2.80;99.90
70309;DHT22;57716;50.896;4.440;2023-02-26T09:50:40;2.70;99.90
70309;DHT22;57716;50.896;4.440;2023-02-26T09:53:15;2.70;99.90
70309;DHT22;57716;50.896;4.440;2023-02-26T09:55:44;2.90;99.90
70309;DHT22;57716;50.896;4.440;2023-02-26T09:58:32;2.80;99.90
70309;DHT22;57716;50.896;4.440;2023-02-26T10:06:45;3.00;99.90
70309;DHT22;57716;50.896;4.440;2023-02-26T10:12:22;3.20;99.90
70309;DHT22;57716;50.896;4.440;2023-02-26T10:15:11;3.00;99.90
70309;DHT22;57716;50.896;4.440;2023-02-26T10:20:57;3.30;99.90
70309;DHT22;57716;50.896;4.440;2023-02-26T10:23:38;3.30;99.90
70309;DHT22;57716;50.896;4.440;2023-02-26T10:26:31;3.00;99.90
70309;DHT22;57716;50.896;4.440;2023-02-26T10:34:36;3.20;99.90
70309;DHT22;57716;50.896;4.440;2023-02-26T10:51:35;3.40;99.90
70309;DHT22;57716;50.896;4.440;2023-02-26T10:54:28;3.50;99.90
70309;DHT22;57716;50.896;4.440;2023-02-26T10:56:55;3.50;99.90
70309;DHT22;57716;50.896;4.440;2023-02-26T10:59:22;3.40;99.90
70309;DHT22;57716;50.896;4.440;2023-02-26T11:01:50;3.20;99.90
70309;DHT22;57716;50.896;4.440;2023-02-26T11:04:22;3.30;99.90
70309;DHT22;57716;50.896;4.440;2023-02-26T11:06:54;3.30;99.90
70309;DHT22;57716;50.896;4.440;2023-02-26T11:09:38;3.30;99.90
70309;DHT22;57716;50.896;4.440;2023-02-26T11:12:15;3.40;99.90
70309;DHT22;57716;50.896;4.440;2023-02-26T11:14:46;3.20;99.90
70309;DHT22;57716;50.896;4.440;2023-02-26T11:17:32;3.10;99.90
70309;DHT22;57716;50.896;4.440;2023-02-26T11:20:01;2.90;99.90
70309;DHT22;57716;50.896;4.440;2023-02-26T11:22:32;3.00;99.90
70309;DHT22;57716;50.896;4.440;2023-02-26T11:25:01;3.30;99.90
70309;DHT22;57716;50.896;4.440;2023-02-26T11:27:34;3.80;99.90
70309;DHT22;57716;50.896;4.440;2023-02-26T11:30:26;3.70;99.90
70309;DHT22;57716;50.896;4.440;2023-02-26T11:32:52;3.70;99.90
70309;DHT22;57716;50.896;4.440;2023-02-26T11:35:21;3.80;99.90
70309;DHT22;57716;50.896;4.440;2023-02-26T11:37:55;3.80;99.90
70309;DHT22;57716;50.896;4.440;2023-02-26T11:40:38;3.70;99.90
70309;DHT22;57716;50.896;4.440;2023-02-26T11:43:07;3.60;99.90
70309;DHT22;57716;50.896;4.440;2023-02-26T11:45:38;4.20;99.90
70309;DHT22;57716;50.896;4.440;2023-02-26T11:48:12;4.50;99.90
70309;DHT22;57716;50.896;4.440;2023-02-26T11:50:43;4.70;99.90
70309;DHT22;57716;50.896;4.440;2023-02-26T11:53:24;4.50;99.90
70309;DHT22;57716;50.896;4.440;2023-02-26T11:55:58;4.30;99.90
70309;DHT22;57716;50.896;4.440;2023-02-26T11:58:27;4.10;99.90
70309;DHT22;57716;50.896;4.440;2023-02-26T12:00:57;3.70;99.90
70309;DHT22;57716;50.896;4.440;2023-02-26T12:03:28;3.70;99.90
70309;DHT22;57716;50.896;4.440;2023-02-26T12:05:57;4.10;99.90
70309;DHT22;57716;50.896;4.440;2023-02-26T12:08:35;4.60;99.70
70309;DHT22;57716;50.896;4.440;2023-02-26T12:22:45;5.00;99.00
70309;DHT22;57716;50.896;4.440;2023-02-26T12:25:40;5.20;96.20
70309;DHT22;57716;50.896;4.440;2023-02-26T12:33:52;5.30;97.20
70309;DHT22;57716;50.896;4.440;2023-02-26T12:41:43;4.90;93.40
70309;DHT22;57716;50.896;4.440;2023-02-26T12:44:19;5.00;91.30
70309;DHT22;57716;50.896;4.440;2023-02-26T12:47:02;5.10;93.30
70309;DHT22;57716;50.896;4.440;2023-02-26T12:52:55;5.90;97.00
70309;DHT22;57716;50.896;4.440;2023-02-26T12:55:37;5.70;93.90
70309;DHT22;57716;50.896;4.440;2023-02-26T13:14:48;5.80;85.50
70309;DHT22;57716;50.896;4.440;2023-02-26T13:17:26;5.70;81.70
70309;DHT22;57716;50.896;4.440;2023-02-26T13:20:00;5.80;81.50
70309;DHT22;57716;50.896;4.440;2023-02-26T13:22:34;5.90;77.60
70309;DHT22;57716;50.896;4.440;2023-02-26T13:28:00;6.10;78.20
70309;DHT22;57716;50.896;4.440;2023-02-26T13:30:33;5.80;77.90
70309;DHT22;57716;50.896;4.440;2023-02-26T13:33:01;5.70;81.90
70309;DHT22;57716;50.896;4.440;2023-02-26T13:35:36;5.40;76.80
70309;DHT22;57716;50.896;4.440;2023-02-26T13:38:37;5.60;81.00
70309;DHT22;57716;50.896;4.440;2023-02-26T13:41:26;5.80;76.10
70309;DHT22;57716;50.896;4.440;2023-02-26T13:44:05;6.20;79.70
70309;DHT22;57716;50.896;4.440;2023-02-26T13:46:49;5.90;76.60
70309;DHT22;57716;50.896;4.440;2023-02-26T13:51:58;5.30;74.20
70309;DHT22;57716;50.896;4.440;2023-02-26T13:54:28;4.80;79.30
70309;DHT22;57716;50.896;4.440;2023-02-26T13:59:58;5.00;78.20
70309;DHT22;57716;50.896;4.440;2023-02-26T14:02:40;5.40;81.10
70309;DHT22;57716;50.896;4.440;2023-02-26T14:05:32;5.60;78.30
70309;DHT22;57716;50.896;4.440;2023-02-26T14:10:34;5.90;72.20
70309;DHT22;57716;50.896;4.440;2023-02-26T14:13:17;6.00;72.70
70309;DHT22;57716;50.896;4.440;2023-02-26T14:18:39;5.90;73.10
70309;DHT22;57716;50.896;4.440;2023-02-26T14:23:55;5.70;72.60
70309;DHT22;57716;50.896;4.440;2023-02-26T14:26:23;5.50;76.20
70309;DHT22;57716;50.896;4.440;2023-02-26T14:31:49;5.90;72.40
70309;DHT22;57716;50.896;4.440;2023-02-26T14:34:16;5.90;72.40
70309;DHT22;57716;50.896;4.440;2023-02-26T14:36:57;6.20;72.20
70309;DHT22;57716;50.896;4.440;2023-02-26T14:39:36;6.20;70.90
70309;DHT22;57716;50.896;4.440;2023-02-26T14:42:06;6.40;72.30
70309;DHT22;57716;50.896;4.440;2023-02-26T14:44:47;6.30;71.50
70309;DHT22;57716;50.896;4.440;2023-02-26T14:47:14;6.30;75.10
70309;DHT22;57716;50.896;4.440;2023-02-26T14:49:45;6.50;73.70
70309;DHT22;57716;50.896;4.440;2023-02-26T14:55:22;6.10;75.70
70309;DHT22;57716;50.896;4.440;2023-02-26T15:00:52;6.10;73.00
70309;DHT22;57716;50.896;4.440;2023-02-26T15:17:19;6.10;77.60
70309;DHT22;57716;50.896;4.440;2023-02-26T15:20:02;5.90;75.70
70309;DHT22;57716;50.896;4.440;2023-02-26T15:25:38;5.50;79.90
70309;DHT22;57716;50.896;4.440;2023-02-26T15:28:13;5.40;79.00
70309;DHT22;57716;50.896;4.440;2023-02-26T15:30:41;5.30;79.80
70309;DHT22;57716;50.896;4.440;2023-02-26T15:33:12;5.30;81.40
70309;DHT22;57716;50.896;4.440;2023-02-26T15:35:44;5.30;80.20
70309;DHT22;57716;50.896;4.440;2023-02-26T15:38:10;5.20;79.30
70309;DHT22;57716;50.896;4.440;2023-02-26T15:40:36;4.90;82.20
70309;DHT22;57716;50.896;4.440;2023-02-26T15:43:05;5.00;81.80
70309;DHT22;57716;50.896;4.440;2023-02-26T15:45:40;5.10;83.00
70309;DHT22;57716;50.896;4.440;2023-02-26T15:48:15;5.10;85.90
70309;DHT22;57716;50.896;4.440;2023-02-26T15:50:44;5.20;90.10
70309;DHT22;57716;50.896;4.440;2023-02-26T15:53:20;5.10;87.00
70309;DHT22;57716;50.896;4.440;2023-02-26T15:55:52;5.10;85.80
70309;DHT22;57716;50.896;4.440;2023-02-26T15:58:43;5.10;85.80
70309;DHT22;57716;50.896;4.440;2023-02-26T16:01:21;5.20;85.00
70309;DHT22;57716;50.896;4.440;2023-02-26T16:03:51;5.00;89.30
70309;DHT22;57716;50.896;4.440;2023-02-26T16:06:26;5.00;84.20
70309;DHT22;57716;50.896;4.440;2023-02-26T16:08:52;5.00;84.70
70309;DHT22;57716;50.896;4.440;2023-02-26T16:11:19;4.90;92.60
70309;DHT22;57716;50.896;4.440;2023-02-26T16:13:49;4.90;88.00
70309;DHT22;57716;50.896;4.440;2023-02-26T16:16:28;4.90;87.00
70309;DHT22;57716;50.896;4.440;2023-02-26T16:18:58;4.80;92.50
70309;DHT22;57716;50.896;4.440;2023-02-26T16:21:35;4.80;88.60
70309;DHT22;57716;50.896;4.440;2023-02-26T16:24:04;4.90;90.10
70309;DHT22;57716;50.896;4.440;2023-02-26T16:26:38;4.90;91.90
70309;DHT22;57716;50.896;4.440;2023-02-26T16:29:18;4.90;92.20
70309;DHT22;57716;50.896;4.440;2023-02-26T16:31:53;4.70;90.80
70309;DHT22;57716;50.896;4.440;2023-02-26T16:36:48;5.00;92.70
70309;DHT22;57716;50.896;4.440;2023-02-26T16:39:29;4.90;92.90
70309;DHT22;57716;50.896;4.440;2023-02-26T16:42:14;4.70;93.50
70309;DHT22;57716;50.896;4.440;2023-02-26T16:44:49;4.60;92.90
70309;DHT22;57716;50.896;4.440;2023-02-26T16:47:17;4.50;93.20
70309;DHT22;57716;50.896;4.440;2023-02-26T16:49:44;4.30;94.60
70309;DHT22;57716;50.896;4.440;2023-02-26T16:52:15;4.30;97.90
70309;DHT22;57716;50.896;4.440;2023-02-26T16:54:44;4.10;96.70
70309;DHT22;57716;50.896;4.440;2023-02-26T16:57:23;4.20;96.40
70309;DHT22;57716;50.896;4.440;2023-02-26T16:59:53;4.00;97.30
70309;DHT22;57716;50.896;4.440;2023-02-26T17:02:26;4.20;96.10
70309;DHT22;57716;50.896;4.440;2023-02-26T17:04:57;4.10;99.50
70309;DHT22;57716;50.896;4.440;2023-02-26T17:07:32;3.90;99.20
70309;DHT22;57716;50.896;4.440;2023-02-26T17:10:06;3.70;99.90
70309;DHT22;57716;50.896;4.440;2023-02-26T17:12:48;3.60;99.90
70309;DHT22;57716;50.896;4.440;2023-02-26T17:15:30;3.80;99.90
70309;DHT22;57716;50.896;4.440;2023-02-26T17:17:56;4.10;99.90
70309;DHT22;57716;50.896;4.440;2023-02-26T17:20:24;4.30;99.90
70309;DHT22;57716;50.896;4.440;2023-02-26T17:22:50;4.70;99.80
70309;DHT22;57716;50.896;4.440;2023-02-26T17:25:18;5.30;97.40
70309;DHT22;57716;50.896;4.440;2023-02-26T17:27:45;5.20;97.70
70309;DHT22;57716;50.896;4.440;2023-02-26T17:30:15;4.70;97.20
70309;DHT22;57716;50.896;4.440;2023-02-26T17:32:42;4.40;98.40
70309;DHT22;57716;50.896;4.440;2023-02-26T17:35:14;4.40;99.90
70309;DHT22;57716;50.896;4.440;2023-02-26T17:37:41;4.20;98.40
70309;DHT22;57716;50.896;4.440;2023-02-26T17:40:28;4.30;99.90
70309;DHT22;57716;50.896;4.440;2023-02-26T17:42:56;4.10;98.10
70309;DHT22;57716;50.896;4.440;2023-02-26T17:45:22;4.00;99.70
70309;DHT22;57716;50.896;4.440;2023-02-26T17:47:48;3.70;99.90
70309;DHT22;57716;50.896;4.440;2023-02-26T17:52:45;3.70;99.90
70309;DHT22;57716;50.896;4.440;2023-02-26T17:55:11;3.60;99.90
70309;DHT22;57716;50.896;4.440;2023-02-26T17:57:37;3.80;99.90
70309;DHT22;57716;50.896;4.440;2023-02-26T18:00:03;3.80;99.90
70309;DHT22;57716;50.896;4.440;2023-02-26T18:02:30;3.90;99.90
70309;DHT22;57716;50.896;4.440;2023-02-26T18:04:55;3.80;99.90
70309;DHT22;57716;50.896;4.440;2023-02-26T18:07:22;3.60;99.90
70309;DHT22;57716;50.896;4.440;2023-02-26T18:09:48;3.50;99.90
70309;DHT22;57716;50.896;4.440;2023-02-26T18:12:19;3.40;99.90
70309;DHT22;57716;50.896;4.440;2023-02-26T18:14:46;3.50;99.90
70309;DHT22;57716;50.896;4.440;2023-02-26T18:17:24;3.80;99.90
70309;DHT22;57716;50.896;4.440;2023-02-26T18:19:51;4.30;99.90
70309;DHT22;57716;50.896;4.440;2023-02-26T18:22:18;4.40;99.90
70309;DHT22;57716;50.896;4.440;2023-02-26T18:24:44;4.50;99.90
70309;DHT22;57716;50.896;4.440;2023-02-26T18:27:15;4.30;99.90
70309;DHT22;57716;50.896;4.440;2023-02-26T18:29:41;4.20;99.90
70309;DHT22;57716;50.896;4.440;2023-02-26T18:32:21;4.20;99.90
70309;DHT22;57716;50.896;4.440;2023-02-26T18:34:48;4.20;99.90
70309;DHT22;57716;50.896;4.440;2023-02-26T18:37:17;4.20;99.90
70309;DHT22;57716;50.896;4.440;2023-02-26T18:39:44;4.00;99.90
70309;DHT22;57716;50.896;4.440;2023-02-26T18:44:43;3.20;99.90
70309;DHT22;57716;50.896;4.440;2023-02-26T18:47:09;3.20;99.90
70309;DHT22;57716;50.896;4.440;2023-02-26T18:49:35;3.10;99.90
70309;DHT22;57716;50.896;4.440;2023-02-26T18:52:01;2.80;99.90
70309;DHT22;57716;50.896;4.440;2023-02-26T18:54:27;2.70;99.90
70309;DHT22;57716;50.896;4.440;2023-02-26T18:56:53;2.40;99.90
70309;DHT22;57716;50.896;4.440;2023-02-26T18:59:19;2.30;99.90